Time;durP1;ratioP1;P1;durP2;ratioP2;P2;SDS_P1;SDS_P2;PMS_P1;PMS_P2;Temp;Humidity;BMP_temperature;BMP_pressure;BME280_temperature;BME280_humidity;BME280_pressure;Samples;Min_cycle;Max_cycle;Signal;HPM_P1;HPM_P2
2023/09/26 00:01:32;;;;;;;0.20;0.05;;;;;;;;;;4982753;28;20137;-81
2023/09/26 00:03:58;;;;;;;0.20;0.10;;;;;;;;;;4979013;28;20117;-81
2023/09/26 00:06:25;;;;;;;0.20;0.10;;;;;;;;;;4981103;28;20074;-81
2023/09/26 00:08:54;;;;;;;0.20;0.10;;;;;;;;;;5012879;28;20056;-81
2023/09/26 00:11:21;;;;;;;0.20;0.10;;;;;;;;;;4980888;28;20076;-81
2023/09/26 00:13:50;;;;;;;0.20;0.00;;;;;;;;;;4977575;28;20042;-81
2023/09/26 00:16:16;;;;;;;0.20;0.10;;;;;;;;;;4979573;28;20074;-82
2023/09/26 00:18:42;;;;;;;0.20;0.20;;;;;;;;;;4978439;28;20104;-81
2023/09/26 00:21:11;;;;;;;0.20;0.10;;;;;;;;;;5014943;28;20038;-81
2023/09/26 00:23:37;;;;;;;0.30;0.20;;;;;;;;;;5013818;28;20191;-81
2023/09/26 00:26:04;;;;;;;0.20;0.00;;;;;;;;;;4980118;28;20140;-81
2023/09/26 00:28:31;;;;;;;0.20;0.10;;;;;;;;;;4982092;28;20057;-81
2023/09/26 00:30:58;;;;;;;0.20;0.10;;;;;;;;;;5014738;28;20045;-81
2023/09/26 00:33:25;;;;;;;0.20;0.00;;;;;;;;;;4981598;28;20039;-81
2023/09/26 00:35:51;;;;;;;0.30;0.10;;;;;;;;;;5011487;28;20042;-81
2023/09/26 00:38:17;;;;;;;0.20;0.10;;;;;;;;;;5009712;28;20439;-81
2023/09/26 00:40:43;;;;;;;0.20;0.10;;;;;;;;;;5016207;28;20046;-82
2023/09/26 00:43:09;;;;;;;0.20;0.10;;;;;;;;;;5015546;28;20042;-81
2023/09/26 00:45:35;;;;;;;0.20;0.10;;;;;;;;;;5012983;28;20038;-81
2023/09/26 00:48:05;;;;;;;0.22;0.13;;;;;;;;;;4981747;28;20039;-81
2023/09/26 00:50:31;;;;;;;0.30;0.30;;;;;;;;;;4986849;28;20533;-81
2023/09/26 00:52:57;;;;;;;0.20;0.10;;;;;;;;;;4983132;28;20541;-81
2023/09/26 00:55:24;;;;;;;0.20;0.13;;;;;;;;;;4998860;28;20034;-82
2023/09/26 00:57:50;;;;;;;0.20;0.00;;;;;;;;;;5014123;28;20093;-82
2023/09/26 01:00:19;;;;;;;0.20;0.00;;;;;;;;;;5012827;28;20402;-81
2023/09/26 01:02:45;;;;;;;0.20;0.20;;;;;;;;;;5013551;28;20046;-82
2023/09/26 01:05:11;;;;;;;0.20;0.10;;;;;;;;;;5008712;28;20466;-81
2023/09/26 01:07:38;;;;;;;0.20;0.00;;;;;;;;;;4981919;28;20051;-81
2023/09/26 01:10:10;;;;;;;0.20;0.10;;;;;;;;;;4981674;28;20048;-81
2023/09/26 01:12:38;;;;;;;0.20;0.08;;;;;;;;;;5010540;28;20167;-81
2023/09/26 01:15:05;;;;;;;0.20;0.00;;;;;;;;;;5014081;28;20089;-81
2023/09/26 01:17:32;;;;;;;0.20;0.10;;;;;;;;;;4975759;28;20593;-81
2023/09/26 01:19:59;;;;;;;0.20;0.00;;;;;;;;;;5009243;28;20045;-81
2023/09/26 01:22:26;;;;;;;0.38;0.35;;;;;;;;;;5012197;28;20034;-81
2023/09/26 01:24:53;;;;;;;0.20;0.10;;;;;;;;;;5013524;28;20073;-81
2023/09/26 01:27:19;;;;;;;0.30;0.20;;;;;;;;;;4979277;28;20403;-82
2023/09/26 01:29:48;;;;;;;0.20;0.10;;;;;;;;;;5011604;28;20039;-82
2023/09/26 01:32:14;;;;;;;0.80;0.43;;;;;;;;;;4975907;28;20434;-81
2023/09/26 01:34:40;;;;;;;0.20;0.10;;;;;;;;;;4996340;28;20051;-81
2023/09/26 01:37:07;;;;;;;0.30;0.13;;;;;;;;;;4981952;28;20061;-81
2023/09/26 01:39:33;;;;;;;0.20;0.10;;;;;;;;;;4984379;28;20417;-81
2023/09/26 01:41:59;;;;;;;0.20;0.10;;;;;;;;;;4988584;28;20038;-82
2023/09/26 01:44:25;;;;;;;0.25;0.10;;;;;;;;;;4985521;28;20038;-82
2023/09/26 01:46:51;;;;;;;0.20;0.10;;;;;;;;;;4983020;28;20042;-82
2023/09/26 01:49:17;;;;;;;0.40;0.28;;;;;;;;;;4978011;28;20417;-82
2023/09/26 01:51:43;;;;;;;0.20;0.10;;;;;;;;;;5015468;28;20053;-81
2023/09/26 01:54:09;;;;;;;0.20;0.20;;;;;;;;;;4977894;28;20573;-81
2023/09/26 01:56:35;;;;;;;0.20;0.10;;;;;;;;;;5010478;28;20072;-81
2023/09/26 01:59:01;;;;;;;0.20;0.10;;;;;;;;;;4997554;28;20038;-81
2023/09/26 02:01:27;;;;;;;0.20;0.00;;;;;;;;;;4982730;28;20564;-81
2023/09/26 02:03:53;;;;;;;0.20;0.10;;;;;;;;;;4980744;28;20092;-82
2023/09/26 02:06:19;;;;;;;0.20;0.10;;;;;;;;;;5016300;28;20062;-81
2023/09/26 02:08:45;;;;;;;0.20;0.10;;;;;;;;;;4979299;28;20136;-81
2023/09/26 02:11:11;;;;;;;0.20;0.10;;;;;;;;;;4978238;28;20687;-82
2023/09/26 02:13:37;;;;;;;0.20;0.03;;;;;;;;;;5017170;28;20042;-81
2023/09/26 02:16:09;;;;;;;0.30;0.10;;;;;;;;;;4977761;28;20383;-82
2023/09/26 02:18:35;;;;;;;0.20;0.03;;;;;;;;;;5013132;28;20491;-81
2023/09/26 02:21:01;;;;;;;0.20;0.10;;;;;;;;;;4985446;28;20045;-82
2023/09/26 02:23:27;;;;;;;0.20;0.10;;;;;;;;;;4979641;28;20109;-81
2023/09/26 02:25:53;;;;;;;0.20;0.10;;;;;;;;;;4996659;28;20080;-81
2023/09/26 02:28:20;;;;;;;0.20;0.10;;;;;;;;;;5009743;28;20089;-81
2023/09/26 02:30:46;;;;;;;0.20;0.10;;;;;;;;;;5012480;28;20054;-81
2023/09/26 02:33:12;;;;;;;0.20;0.10;;;;;;;;;;4995162;28;20034;-81
2023/09/26 02:35:38;;;;;;;0.20;0.10;;;;;;;;;;5012470;28;20134;-81
2023/09/26 02:38:04;;;;;;;0.20;0.10;;;;;;;;;;4979725;28;20120;-81
2023/09/26 02:40:30;;;;;;;0.20;0.10;;;;;;;;;;5009648;28;20174;-81
2023/09/26 02:42:56;;;;;;;0.20;0.10;;;;;;;;;;4984519;28;20046;-81
2023/09/26 02:45:22;;;;;;;0.20;0.10;;;;;;;;;;4987591;28;20407;-81
2023/09/26 02:47:48;;;;;;;0.20;0.10;;;;;;;;;;4984579;28;20089;-81
2023/09/26 02:50:14;;;;;;;0.68;0.40;;;;;;;;;;5015182;28;20043;-82
2023/09/26 02:52:41;;;;;;;0.20;0.10;;;;;;;;;;5015377;28;20069;-81
2023/09/26 02:55:07;;;;;;;0.30;0.20;;;;;;;;;;4985699;28;20476;-81
2023/09/26 02:57:34;;;;;;;0.20;0.10;;;;;;;;;;5018910;23;20043;-82
2023/09/26 03:00:00;;;;;;;0.57;0.40;;;;;;;;;;4983002;28;20127;-84
2023/09/26 03:02:26;;;;;;;0.20;0.10;;;;;;;;;;4981039;28;20055;-84
2023/09/26 03:04:52;;;;;;;0.20;0.10;;;;;;;;;;4989686;28;20035;-82
2023/09/26 03:07:18;;;;;;;0.20;0.10;;;;;;;;;;4985720;28;20046;-83
2023/09/26 03:09:44;;;;;;;0.20;0.10;;;;;;;;;;4987098;28;20039;-83
2023/09/26 03:12:10;;;;;;;0.20;0.10;;;;;;;;;;4980082;28;20062;-83
2023/09/26 03:14:36;;;;;;;0.22;0.10;;;;;;;;;;4987324;28;20049;-83
2023/09/26 03:17:05;;;;;;;0.20;0.10;;;;;;;;;;4969645;28;20042;-84
2023/09/26 03:19:31;;;;;;;0.22;0.20;;;;;;;;;;4982111;28;20050;-84
2023/09/26 03:21:57;;;;;;;0.20;0.10;;;;;;;;;;4983731;28;20049;-84
2023/09/26 03:24:23;;;;;;;0.20;0.10;;;;;;;;;;4981396;28;20069;-83
2023/09/26 03:26:49;;;;;;;0.52;0.15;;;;;;;;;;4991450;28;20039;-83
2023/09/26 03:29:15;;;;;;;0.52;0.50;;;;;;;;;;4985323;28;20039;-85
2023/09/26 03:31:41;;;;;;;0.20;0.10;;;;;;;;;;4981493;28;20042;-84
2023/09/26 03:34:09;;;;;;;0.20;0.10;;;;;;;;;;4978248;28;20051;-84
2023/09/26 03:36:35;;;;;;;0.25;0.25;;;;;;;;;;4965657;28;20141;-87
2023/09/26 03:39:03;;;;;;;0.20;0.10;;;;;;;;;;4962515;28;20218;-84
2023/09/26 03:41:29;;;;;;;0.47;0.45;;;;;;;;;;4975666;28;20038;-84
2023/09/26 03:43:55;;;;;;;0.20;0.10;;;;;;;;;;4969594;28;20042;-84
2023/09/26 03:46:21;;;;;;;0.50;0.38;;;;;;;;;;4974604;28;20033;-84
2023/09/26 03:48:49;;;;;;;0.30;0.20;;;;;;;;;;4984486;28;20033;-85
2023/09/26 03:51:15;;;;;;;0.30;0.28;;;;;;;;;;4977999;28;20034;-85
2023/09/26 03:53:41;;;;;;;0.20;0.10;;;;;;;;;;4986599;28;20106;-85
2023/09/26 03:56:08;;;;;;;0.20;0.10;;;;;;;;;;5004681;28;20026;-83
2023/09/26 03:58:34;;;;;;;0.20;0.10;;;;;;;;;;4987268;28;20043;-84
2023/09/26 04:01:08;;;;;;;0.32;0.32;;;;;;;;;;4980088;28;20045;-83
2023/09/26 04:03:34;;;;;;;0.20;0.08;;;;;;;;;;4983106;28;20081;-84
2023/09/26 04:06:00;;;;;;;0.32;0.28;;;;;;;;;;4970620;28;20039;-83
2023/09/26 04:08:26;;;;;;;0.20;0.20;;;;;;;;;;4964314;28;20462;-83
2023/09/26 04:10:52;;;;;;;0.20;0.10;;;;;;;;;;4967069;28;20038;-83
2023/09/26 04:13:18;;;;;;;0.20;0.10;;;;;;;;;;4980746;28;20137;-83
2023/09/26 04:15:44;;;;;;;0.20;0.13;;;;;;;;;;4984051;28;20046;-83
2023/09/26 04:18:10;;;;;;;0.22;0.10;;;;;;;;;;4984659;28;20118;-83
2023/09/26 04:20:37;;;;;;;0.20;0.10;;;;;;;;;;4965806;28;20034;-83
2023/09/26 04:23:03;;;;;;;0.20;0.13;;;;;;;;;;4973088;28;20042;-83
2023/09/26 04:25:30;;;;;;;0.20;0.17;;;;;;;;;;4979271;28;20030;-83
2023/09/26 04:27:56;;;;;;;0.20;0.10;;;;;;;;;;4977975;28;20042;-83
2023/09/26 04:30:23;;;;;;;0.22;0.22;;;;;;;;;;4980526;28;20052;-82
2023/09/26 04:32:49;;;;;;;0.20;0.10;;;;;;;;;;4986957;28;20042;-83
2023/09/26 04:35:15;;;;;;;0.20;0.10;;;;;;;;;;4984640;28;20054;-83
2023/09/26 04:37:41;;;;;;;0.20;0.10;;;;;;;;;;4991805;28;20046;-84
2023/09/26 04:40:11;;;;;;;0.30;0.20;;;;;;;;;;4974960;28;20046;-82
2023/09/26 04:42:41;;;;;;;0.20;0.20;;;;;;;;;;4983053;28;20109;-83
2023/09/26 04:45:08;;;;;;;0.20;0.10;;;;;;;;;;4972643;28;20054;-82
2023/09/26 04:47:35;;;;;;;0.28;0.20;;;;;;;;;;4961646;28;20054;-83
2023/09/26 04:50:01;;;;;;;0.20;0.20;;;;;;;;;;4959049;28;20051;-82
2023/09/26 04:52:27;;;;;;;0.20;0.10;;;;;;;;;;4975423;28;20053;-83
2023/09/26 04:54:54;;;;;;;0.20;0.10;;;;;;;;;;4993578;28;20042;-83
2023/09/26 04:57:21;;;;;;;0.20;0.10;;;;;;;;;;4984123;28;20049;-82
2023/09/26 04:59:47;;;;;;;0.20;0.10;;;;;;;;;;4985804;28;20045;-83
2023/09/26 05:02:13;;;;;;;0.20;0.10;;;;;;;;;;4963802;28;20031;-84
2023/09/26 05:04:41;;;;;;;0.30;0.15;;;;;;;;;;4971145;28;20038;-85
2023/09/26 05:07:09;;;;;;;0.22;0.20;;;;;;;;;;4963132;28;20043;-85
2023/09/26 05:09:35;;;;;;;0.30;0.30;;;;;;;;;;4984678;28;20039;-85
2023/09/26 05:12:01;;;;;;;0.20;0.20;;;;;;;;;;4966994;28;20075;-84
2023/09/26 05:14:27;;;;;;;0.30;0.20;;;;;;;;;;4968239;28;20039;-84
2023/09/26 05:16:53;;;;;;;0.20;0.10;;;;;;;;;;4973931;28;20035;-84
2023/09/26 05:19:19;;;;;;;0.20;0.00;;;;;;;;;;4979646;28;20038;-84
2023/09/26 05:21:48;;;;;;;0.25;0.05;;;;;;;;;;4980299;28;20185;-84
2023/09/26 05:24:14;;;;;;;0.20;0.10;;;;;;;;;;4983215;28;20110;-84
2023/09/26 05:26:40;;;;;;;0.20;0.10;;;;;;;;;;4980711;28;20561;-84
2023/09/26 05:29:06;;;;;;;0.20;0.20;;;;;;;;;;4964300;28;20085;-84
2023/09/26 05:31:32;;;;;;;0.68;0.68;;;;;;;;;;4981035;28;20035;-83
2023/09/26 05:33:59;;;;;;;0.20;0.00;;;;;;;;;;4983764;28;20543;-84
2023/09/26 05:36:25;;;;;;;0.45;0.35;;;;;;;;;;4964193;28;20043;-84
2023/09/26 05:38:51;;;;;;;0.20;0.17;;;;;;;;;;4966625;28;20066;-84
2023/09/26 05:41:18;;;;;;;0.20;0.10;;;;;;;;;;4999812;28;22426;-84
2023/09/26 05:43:44;;;;;;;0.30;0.20;;;;;;;;;;4985011;28;20039;-83
2023/09/26 05:46:10;;;;;;;0.20;0.10;;;;;;;;;;4982572;28;20056;-83
2023/09/26 05:48:39;;;;;;;0.20;0.10;;;;;;;;;;4970648;28;20046;-83
2023/09/26 05:51:05;;;;;;;0.20;0.03;;;;;;;;;;4984723;28;20099;-83
2023/09/26 05:53:31;;;;;;;0.47;0.05;;;;;;;;;;4982031;28;20042;-84
2023/09/26 05:55:58;;;;;;;0.20;0.00;;;;;;;;;;4981862;28;20077;-83
2023/09/26 05:58:24;;;;;;;0.38;0.30;;;;;;;;;;4986052;28;20054;-83
2023/09/26 06:00:53;;;;;;;0.20;0.10;;;;;;;;;;4977300;28;20090;-83
2023/09/26 06:03:19;;;;;;;0.20;0.10;;;;;;;;;;4966532;28;20034;-84
2023/09/26 06:05:45;;;;;;;0.20;0.10;;;;;;;;;;4979226;28;20058;-83
2023/09/26 06:08:12;;;;;;;0.20;0.20;;;;;;;;;;4971867;28;20043;-83
2023/09/26 06:10:38;;;;;;;0.20;0.05;;;;;;;;;;4987058;28;20359;-83
2023/09/26 06:13:04;;;;;;;0.20;0.15;;;;;;;;;;4984440;28;20044;-84
2023/09/26 06:15:31;;;;;;;0.20;0.13;;;;;;;;;;4984507;28;20037;-84
2023/09/26 06:18:00;;;;;;;0.20;0.10;;;;;;;;;;4964785;28;20043;-83
2023/09/26 06:20:31;;;;;;;0.20;0.10;;;;;;;;;;4983752;28;20063;-83
2023/09/26 06:22:58;;;;;;;0.20;0.03;;;;;;;;;;4965435;28;20126;-82
2023/09/26 06:25:24;;;;;;;0.22;0.13;;;;;;;;;;4987849;28;20046;-83
2023/09/26 06:27:50;;;;;;;0.30;0.10;;;;;;;;;;4985539;28;20051;-84
2023/09/26 06:30:16;;;;;;;0.20;0.10;;;;;;;;;;4985057;28;20110;-84
2023/09/26 06:32:43;;;;;;;0.20;0.00;;;;;;;;;;4978117;28;20078;-83
2023/09/26 06:35:10;;;;;;;0.20;0.10;;;;;;;;;;4978602;28;20099;-83
2023/09/26 06:37:36;;;;;;;0.20;0.10;;;;;;;;;;4968133;28;20277;-83
2023/09/26 06:40:04;;;;;;;0.20;0.10;;;;;;;;;;4981496;28;20049;-83
2023/09/26 06:42:30;;;;;;;0.28;0.10;;;;;;;;;;4981017;28;20126;-83
2023/09/26 06:44:57;;;;;;;0.20;0.00;;;;;;;;;;4977994;28;20066;-82
2023/09/26 06:47:24;;;;;;;0.25;0.20;;;;;;;;;;4965148;28;20042;-83
2023/09/26 06:49:50;;;;;;;1.17;0.13;;;;;;;;;;4964424;28;20145;-83
2023/09/26 06:52:16;;;;;;;0.30;0.20;;;;;;;;;;4978166;28;20367;-83
2023/09/26 06:54:42;;;;;;;0.20;0.20;;;;;;;;;;5001417;28;20492;-84
2023/09/26 06:57:09;;;;;;;0.20;0.00;;;;;;;;;;4983868;28;20030;-83
2023/09/26 06:59:36;;;;;;;0.20;0.20;;;;;;;;;;4965700;28;20070;-83
2023/09/26 07:02:02;;;;;;;0.20;0.10;;;;;;;;;;4983509;28;20042;-82
2023/09/26 07:04:28;;;;;;;0.88;0.32;;;;;;;;;;4987616;28;20046;-83
2023/09/26 07:06:54;;;;;;;0.20;0.10;;;;;;;;;;4978595;28;20077;-82
2023/09/26 07:09:20;;;;;;;0.20;0.00;;;;;;;;;;4975945;28;20086;-82
2023/09/26 07:11:52;;;;;;;0.20;0.10;;;;;;;;;;4976336;28;20040;-83
2023/09/26 07:14:18;;;;;;;0.68;0.57;;;;;;;;;;4977390;28;20043;-83
2023/09/26 07:16:46;;;;;;;0.20;0.10;;;;;;;;;;4970019;28;20065;-83
2023/09/26 07:19:13;;;;;;;0.20;0.08;;;;;;;;;;4978336;28;20034;-84
2023/09/26 07:21:39;;;;;;;0.50;0.28;;;;;;;;;;4977831;28;20050;-83
2023/09/26 07:24:08;;;;;;;0.20;0.10;;;;;;;;;;4956085;28;21795;-84
2023/09/26 07:26:34;;;;;;;0.20;0.10;;;;;;;;;;4977705;28;20417;-84
2023/09/26 07:29:00;;;;;;;0.20;0.10;;;;;;;;;;4979246;28;20133;-83
2023/09/26 07:31:29;;;;;;;0.20;0.17;;;;;;;;;;4953273;28;20158;-83
2023/09/26 07:33:55;;;;;;;0.20;0.05;;;;;;;;;;4992729;28;20047;-83
2023/09/26 07:36:22;;;;;;;0.20;0.10;;;;;;;;;;4956751;28;20040;-83
2023/09/26 07:38:49;;;;;;;0.20;0.10;;;;;;;;;;4975530;28;20043;-83
2023/09/26 07:41:15;;;;;;;0.25;0.15;;;;;;;;;;4984247;28;20043;-84
2023/09/26 07:43:41;;;;;;;0.20;0.00;;;;;;;;;;4976966;28;20056;-84
2023/09/26 07:46:08;;;;;;;0.20;0.10;;;;;;;;;;4979405;28;20019;-85
2023/09/26 07:48:34;;;;;;;0.52;0.38;;;;;;;;;;4966122;28;20062;-84
2023/09/26 07:51:01;;;;;;;0.20;0.00;;;;;;;;;;4977961;28;20114;-84
2023/09/26 07:53:27;;;;;;;0.20;0.10;;;;;;;;;;4980124;28;20043;-84
2023/09/26 07:55:56;;;;;;;0.47;0.30;;;;;;;;;;4980694;28;20070;-84
2023/09/26 07:58:22;;;;;;;0.20;0.00;;;;;;;;;;4980688;28;20078;-84
2023/09/26 08:00:48;;;;;;;0.20;0.10;;;;;;;;;;4978462;28;20047;-85
2023/09/26 08:03:14;;;;;;;0.20;0.10;;;;;;;;;;4966905;28;20038;-84
2023/09/26 08:05:40;;;;;;;0.20;0.00;;;;;;;;;;4980418;28;20047;-85
2023/09/26 08:08:07;;;;;;;0.20;0.10;;;;;;;;;;4980687;28;20043;-86
2023/09/26 08:10:36;;;;;;;0.20;0.10;;;;;;;;;;4985761;28;20042;-83
2023/09/26 08:13:02;;;;;;;0.20;0.10;;;;;;;;;;4974024;28;20043;-83
2023/09/26 08:15:31;;;;;;;0.32;0.30;;;;;;;;;;4980131;28;20042;-83
2023/09/26 08:17:57;;;;;;;0.30;0.20;;;;;;;;;;4967600;28;20050;-83
2023/09/26 08:20:26;;;;;;;0.20;0.10;;;;;;;;;;4979703;28;20039;-83
2023/09/26 08:22:52;;;;;;;0.32;0.32;;;;;;;;;;4976908;28;20392;-83
2023/09/26 08:25:18;;;;;;;0.20;0.00;;;;;;;;;;4981271;28;20042;-83
2023/09/26 08:27:44;;;;;;;0.20;0.00;;;;;;;;;;4960717;28;20049;-83
2023/09/26 08:30:11;;;;;;;0.20;0.10;;;;;;;;;;4979892;28;20042;-83
2023/09/26 08:32:38;;;;;;;0.20;0.10;;;;;;;;;;4986931;28;20046;-83
2023/09/26 08:35:05;;;;;;;0.20;0.10;;;;;;;;;;4962852;28;20059;-85
2023/09/26 08:37:33;;;;;;;0.20;0.10;;;;;;;;;;4969679;28;20105;-84
2023/09/26 08:39:59;;;;;;;0.20;0.10;;;;;;;;;;4975750;28;20256;-84
2023/09/26 08:42:27;;;;;;;1.05;0.30;;;;;;;;;;4980764;28;20047;-83
2023/09/26 08:44:54;;;;;;;0.20;0.10;;;;;;;;;;4980651;28;20415;-84
2023/09/26 08:47:24;;;;;;;0.20;0.20;;;;;;;;;;4976144;28;20078;-83
2023/09/26 08:49:52;;;;;;;0.20;0.10;;;;;;;;;;4966083;28;20038;-83
2023/09/26 08:52:18;;;;;;;0.20;0.10;;;;;;;;;;4982664;28;20018;-83
2023/09/26 08:54:44;;;;;;;0.20;0.10;;;;;;;;;;4982394;28;20045;-83
2023/09/26 08:57:10;;;;;;;0.20;0.15;;;;;;;;;;4984381;28;20061;-84
2023/09/26 08:59:36;;;;;;;0.20;0.15;;;;;;;;;;4984350;28;20065;-86
2023/09/26 09:02:04;;;;;;;0.40;0.10;;;;;;;;;;4985470;28;20042;-84
2023/09/26 09:04:30;;;;;;;0.20;0.03;;;;;;;;;;4980804;28;20051;-84
2023/09/26 09:07:04;;;;;;;0.20;0.10;;;;;;;;;;4969377;28;20050;-84
2023/09/26 09:09:30;;;;;;;0.20;0.08;;;;;;;;;;4985328;28;20292;-83
2023/09/26 09:11:56;;;;;;;0.20;0.20;;;;;;;;;;4983981;28;20038;-83
2023/09/26 09:14:35;;;;;;;0.20;0.10;;;;;;;;;;4985578;28;20038;-86
2023/09/26 09:17:01;;;;;;;0.20;0.03;;;;;;;;;;4976632;28;20042;-83
2023/09/26 09:19:46;;;;;;;0.65;0.32;;;;;;;;;;4972627;28;20034;-84
2023/09/26 09:22:17;;;;;;;0.20;0.10;;;;;;;;;;4987244;28;20066;-83
2023/09/26 09:24:43;;;;;;;0.20;0.00;;;;;;;;;;4976349;28;20046;-83
2023/09/26 09:27:09;;;;;;;0.20;0.10;;;;;;;;;;4986345;28;20070;-87
2023/09/26 09:29:35;;;;;;;0.20;0.10;;;;;;;;;;4965632;28;20052;-88
2023/09/26 09:32:02;;;;;;;0.20;0.10;;;;;;;;;;4968476;28;20114;-85
2023/09/26 09:34:28;;;;;;;0.20;0.00;;;;;;;;;;4966643;28;20062;-86
2023/09/26 09:36:57;;;;;;;0.30;0.10;;;;;;;;;;4971319;28;20073;-85
2023/09/26 09:39:23;;;;;;;0.20;0.10;;;;;;;;;;4971678;28;20058;-83
2023/09/26 09:41:49;;;;;;;0.30;0.20;;;;;;;;;;4983366;28;20043;-83
2023/09/26 09:44:15;;;;;;;0.20;0.20;;;;;;;;;;4966785;28;20039;-84
2023/09/26 09:46:43;;;;;;;0.43;0.38;;;;;;;;;;4999451;28;20138;-85
2023/09/26 09:49:10;;;;;;;0.20;0.10;;;;;;;;;;4984057;28;20054;-84
2023/09/26 09:51:42;;;;;;;0.20;0.10;;;;;;;;;;4983012;28;20141;-83
2023/09/26 09:54:12;;;;;;;0.20;0.05;;;;;;;;;;4981836;28;20038;-84
2023/09/26 09:56:39;;;;;;;0.20;0.10;;;;;;;;;;4964196;28;20049;-83
2023/09/26 09:59:12;;;;;;;0.20;0.10;;;;;;;;;;4980470;28;20066;-84
2023/09/26 10:01:43;;;;;;;0.20;0.10;;;;;;;;;;4964867;28;20331;-83
2023/09/26 10:04:10;;;;;;;0.20;0.10;;;;;;;;;;4976906;28;20051;-85
2023/09/26 10:06:36;;;;;;;0.20;0.10;;;;;;;;;;4965288;28;20048;-86
2023/09/26 10:09:03;;;;;;;0.20;0.10;;;;;;;;;;4979321;28;20609;-84
2023/09/26 10:11:30;;;;;;;0.20;0.10;;;;;;;;;;4978069;28;20089;-83
2023/09/26 10:13:58;;;;;;;0.20;0.10;;;;;;;;;;4979841;28;20053;-83
2023/09/26 10:16:25;;;;;;;0.30;0.13;;;;;;;;;;4977162;28;20049;-84
2023/09/26 10:18:51;;;;;;;0.20;0.00;;;;;;;;;;4964019;28;20561;-84
2023/09/26 10:21:21;;;;;;;1.58;0.40;;;;;;;;;;4969284;28;20531;-83
2023/09/26 10:24:05;;;;;;;0.20;0.10;;;;;;;;;;4988248;28;20070;-84
2023/09/26 10:26:37;;;;;;;0.20;0.10;;;;;;;;;;4958567;28;20066;-86
2023/09/26 10:29:07;;;;;;;0.30;0.30;;;;;;;;;;4960646;28;20043;-84
2023/09/26 10:31:33;;;;;;;0.35;0.10;;;;;;;;;;4954416;28;20108;-83
2023/09/26 10:33:59;;;;;;;0.38;0.28;;;;;;;;;;4956578;28;20054;-85
2023/09/26 10:36:25;;;;;;;0.40;0.15;;;;;;;;;;4959069;28;20090;-85
2023/09/26 10:39:03;;;;;;;0.60;0.40;;;;;;;;;;4958052;28;20137;-83
2023/09/26 10:41:31;;;;;;;0.20;0.00;;;;;;;;;;4978973;28;20515;-83
2023/09/26 10:44:01;;;;;;;0.20;0.10;;;;;;;;;;4972713;28;20558;-84
2023/09/26 10:46:27;;;;;;;0.20;0.15;;;;;;;;;;4962531;28;20079;-83
2023/09/26 10:48:56;;;;;;;0.20;0.00;;;;;;;;;;4956806;28;20450;-84
2023/09/26 10:51:22;;;;;;;0.20;0.10;;;;;;;;;;4968235;28;20053;-85
2023/09/26 10:53:48;;;;;;;0.60;0.43;;;;;;;;;;4985371;28;20074;-83
2023/09/26 10:56:15;;;;;;;0.20;0.20;;;;;;;;;;4967763;28;20035;-84
2023/09/26 10:58:47;;;;;;;0.20;0.10;;;;;;;;;;4974373;28;20519;-85
2023/09/26 11:01:13;;;;;;;;;;;;;;;;;;4961574;28;20035;-84
2023/09/26 11:03:39;;;;;;;0.35;0.25;;;;;;;;;;4976878;28;19936;-83
2023/09/26 11:06:07;;;;;;;0.20;0.10;;;;;;;;;;4975151;28;20049;-84
2023/09/26 11:08:33;;;;;;;0.28;0.10;;;;;;;;;;4960647;28;20068;-83
2023/09/26 11:10:59;;;;;;;0.20;0.10;;;;;;;;;;4956160;28;20073;-85
2023/09/26 11:13:25;;;;;;;0.20;0.10;;;;;;;;;;4961448;28;20472;-86
2023/09/26 11:15:55;;;;;;;0.20;0.17;;;;;;;;;;4978659;28;20057;-84
2023/09/26 11:18:22;;;;;;;0.20;0.10;;;;;;;;;;4962637;28;20062;-85
2023/09/26 11:20:48;;;;;;;0.40;0.40;;;;;;;;;;4978760;28;20094;-85
2023/09/26 11:23:33;;;;;;;0.20;0.10;;;;;;;;;;4971720;28;20046;-83
2023/09/26 11:26:03;;;;;;;0.20;0.13;;;;;;;;;;4962361;28;20046;-84
2023/09/26 11:28:30;;;;;;;0.20;0.10;;;;;;;;;;4973251;28;20035;-85
2023/09/26 11:30:56;;;;;;;0.20;0.10;;;;;;;;;;4974737;28;20133;-84
2023/09/26 11:33:22;;;;;;;0.40;0.10;;;;;;;;;;4960791;28;20098;-83
2023/09/26 11:35:48;;;;;;;0.32;0.30;;;;;;;;;;4969051;28;20117;-85
2023/09/26 11:38:15;;;;;;;0.22;0.20;;;;;;;;;;4966188;28;20058;-84
2023/09/26 11:40:41;;;;;;;0.20;0.10;;;;;;;;;;4971215;28;20049;-83
2023/09/26 11:43:07;;;;;;;0.20;0.10;;;;;;;;;;4970425;28;20043;-84
2023/09/26 11:45:33;;;;;;;0.20;0.10;;;;;;;;;;4976027;28;20328;-84
2023/09/26 11:48:01;;;;;;;0.25;0.08;;;;;;;;;;4952827;28;20038;-83
2023/09/26 11:50:28;;;;;;;0.20;0.10;;;;;;;;;;4975918;28;20050;-85
2023/09/26 11:53:00;;;;;;;0.20;0.10;;;;;;;;;;4974505;28;20062;-85
2023/09/26 11:55:26;;;;;;;;;;;;;;;;;;4974485;28;20042;-84
2023/09/26 11:57:54;;;;;;;0.20;0.10;;;;;;;;;;4969975;28;19922;-85
2023/09/26 12:00:20;;;;;;;0.20;0.20;;;;;;;;;;4958984;28;20039;-86
2023/09/26 12:02:47;;;;;;;2.97;0.30;;;;;;;;;;4987622;28;20047;-83
2023/09/26 12:05:15;;;;;;;0.25;0.13;;;;;;;;;;4957694;28;20050;-84
2023/09/26 12:07:41;;;;;;;0.20;0.10;;;;;;;;;;4978295;28;20421;-85
2023/09/26 12:10:08;;;;;;;0.20;0.10;;;;;;;;;;4954097;28;20530;-83
2023/09/26 12:12:35;;;;;;;0.20;0.10;;;;;;;;;;4968090;28;20125;-83
2023/09/26 12:15:20;;;;;;;0.20;0.10;;;;;;;;;;4970382;28;20046;-84
2023/09/26 12:17:51;;;;;;;1.13;0.52;;;;;;;;;;4949210;28;20053;-83
2023/09/26 12:20:21;;;;;;;0.20;0.20;;;;;;;;;;4965785;28;20055;-83
2023/09/26 12:22:47;;;;;;;0.20;0.10;;;;;;;;;;4964697;28;20050;-84
2023/09/26 12:25:13;;;;;;;0.20;0.10;;;;;;;;;;4967843;28;20039;-82
2023/09/26 12:27:39;;;;;;;0.22;0.10;;;;;;;;;;4974509;28;20057;-85
2023/09/26 12:30:06;;;;;;;0.20;0.20;;;;;;;;;;4968712;28;20042;-82
2023/09/26 12:32:32;;;;;;;0.22;0.22;;;;;;;;;;4974951;28;20798;-83
2023/09/26 12:34:58;;;;;;;0.20;0.10;;;;;;;;;;4989286;28;20038;-83
2023/09/26 12:37:24;;;;;;;0.20;0.10;;;;;;;;;;4957009;28;20046;-83
2023/09/26 12:39:50;;;;;;;0.20;0.15;;;;;;;;;;4967438;28;20046;-84
2023/09/26 12:42:16;;;;;;;0.38;0.20;;;;;;;;;;4967698;28;20039;-84
2023/09/26 12:44:42;;;;;;;0.20;0.10;;;;;;;;;;4973768;28;20414;-84
2023/09/26 12:47:08;;;;;;;0.20;0.10;;;;;;;;;;4955945;28;20126;-83
2023/09/26 12:49:34;;;;;;;0.20;0.10;;;;;;;;;;4966501;28;20053;-84
2023/09/26 12:52:01;;;;;;;0.20;0.13;;;;;;;;;;4967174;28;20043;-84
2023/09/26 12:54:27;;;;;;;0.95;0.30;;;;;;;;;;4954866;28;20058;-84
2023/09/26 12:56:55;;;;;;;1.10;1.00;;;;;;;;;;4976754;28;20123;-84
2023/09/26 12:59:21;;;;;;;0.20;0.13;;;;;;;;;;4964624;28;20447;-86
2023/09/26 13:01:47;;;;;;;0.20;0.10;;;;;;;;;;4977242;28;20081;-83
2023/09/26 13:04:13;;;;;;;0.20;0.10;;;;;;;;;;4959952;28;20039;-85
2023/09/26 13:06:39;;;;;;;0.20;0.08;;;;;;;;;;4977006;28;20050;-88
2023/09/26 13:09:06;;;;;;;0.30;0.20;;;;;;;;;;4979786;28;20038;-84
2023/09/26 13:11:32;;;;;;;0.20;0.00;;;;;;;;;;4967697;28;20038;-85
2023/09/26 13:13:58;;;;;;;0.30;0.20;;;;;;;;;;4975620;28;20094;-85
2023/09/26 13:16:25;;;;;;;1.40;0.35;;;;;;;;;;4967756;28;20039;-85
2023/09/26 13:18:51;;;;;;;0.20;0.10;;;;;;;;;;4977321;28;20043;-87
2023/09/26 13:21:18;;;;;;;0.20;0.10;;;;;;;;;;4956270;28;20537;-84
2023/09/26 13:23:45;;;;;;;0.43;0.20;;;;;;;;;;4973006;28;20447;-85
2023/09/26 13:26:11;;;;;;;0.20;0.10;;;;;;;;;;4956278;28;20047;-84
2023/09/26 13:28:40;;;;;;;0.20;0.10;;;;;;;;;;4956494;28;20034;-85
2023/09/26 13:31:06;;;;;;;0.20;0.10;;;;;;;;;;4971375;28;20523;-86
2023/09/26 13:33:32;;;;;;;3.60;0.50;;;;;;;;;;4969390;28;20038;-85
2023/09/26 13:35:58;;;;;;;0.25;0.25;;;;;;;;;;4966364;28;20066;-85
2023/09/26 13:38:24;;;;;;;0.20;0.10;;;;;;;;;;4971094;28;20122;-84
2023/09/26 13:40:50;;;;;;;0.20;0.20;;;;;;;;;;4960091;28;20085;-85
2023/09/26 13:43:16;;;;;;;0.43;0.25;;;;;;;;;;4972131;28;20043;-89
2023/09/26 13:45:42;;;;;;;0.20;0.20;;;;;;;;;;4984307;28;20039;-85
2023/09/26 13:48:08;;;;;;;0.40;0.28;;;;;;;;;;4955834;28;20046;-85
2023/09/26 13:50:34;;;;;;;0.20;0.10;;;;;;;;;;4956181;28;20046;-87
2023/09/26 13:53:00;;;;;;;0.20;0.10;;;;;;;;;;4956642;28;20039;-84
2023/09/26 13:55:26;;;;;;;0.20;0.10;;;;;;;;;;4971612;28;20042;-85
2023/09/26 13:57:53;;;;;;;0.20;0.10;;;;;;;;;;4953127;28;20046;-85
2023/09/26 14:00:20;;;;;;;0.30;0.10;;;;;;;;;;4970376;28;20495;-87
2023/09/26 14:02:46;;;;;;;0.20;0.10;;;;;;;;;;4954036;28;20073;-85
2023/09/26 14:05:14;;;;;;;0.20;0.10;;;;;;;;;;4973284;28;20098;-86
2023/09/26 14:07:43;;;;;;;0.20;0.10;;;;;;;;;;4948099;28;20050;-86
2023/09/26 14:10:09;;;;;;;0.25;0.22;;;;;;;;;;4966924;28;20039;-84
2023/09/26 14:12:37;;;;;;;0.20;0.10;;;;;;;;;;4973449;28;20437;-85
2023/09/26 14:15:03;;;;;;;0.40;0.40;;;;;;;;;;4966119;28;20455;-86
2023/09/26 14:17:29;;;;;;;1.52;0.30;;;;;;;;;;4953217;28;20118;-85
2023/09/26 14:19:55;;;;;;;0.30;0.20;;;;;;;;;;4969120;28;20038;-85
2023/09/26 14:22:21;;;;;;;0.20;0.10;;;;;;;;;;4960924;28;20039;-84
2023/09/26 14:24:47;;;;;;;0.40;0.30;;;;;;;;;;4974313;28;20045;-84
2023/09/26 14:27:13;;;;;;;0.20;0.10;;;;;;;;;;4980158;28;20122;-83
2023/09/26 14:29:40;;;;;;;0.20;0.10;;;;;;;;;;4976456;28;20055;-83
2023/09/26 14:32:06;;;;;;;0.20;0.10;;;;;;;;;;4955513;28;20137;-86
2023/09/26 14:34:33;;;;;;;0.20;0.10;;;;;;;;;;4954039;28;20038;-85
2023/09/26 14:37:01;;;;;;;0.20;0.10;;;;;;;;;;4955490;28;20054;-88
2023/09/26 14:39:27;;;;;;;0.20;0.00;;;;;;;;;;4992790;28;20586;-84
2023/09/26 14:41:54;;;;;;;0.20;0.10;;;;;;;;;;4959470;28;20037;-84